createdAt,value
2018-11-20T00:04:35.782Z,21.13
2018-11-20T00:10:05.023Z,21.12
2018-11-20T00:15:17.319Z,21.12
2018-11-20T00:20:43.313Z,21.12
2018-11-20T00:26:05.380Z,21.09
2018-11-20T00:31:21.330Z,21.09
2018-11-20T00:36:44.690Z,21.07
2018-11-20T00:42:29.023Z,21.05
2018-11-20T00:47:55.239Z,21.09
2018-11-20T00:53:16.365Z,21.07
2018-11-20T00:58:33.634Z,21.06
2018-11-20T01:03:55.895Z,21.00
2018-11-20T01:09:21.395Z,21.00
2018-11-20T01:14:47.429Z,20.95
2018-11-20T01:20:19.606Z,20.91
2018-11-20T01:25:41.454Z,20.90
2018-11-20T01:31:03.692Z,20.87
2018-11-20T01:36:42.380Z,20.83
2018-11-20T01:42:08.259Z,20.79
2018-11-20T01:47:30.474Z,20.74
2018-11-20T01:52:52.404Z,20.70
2018-11-20T01:58:13.007Z,20.66
2018-11-20T02:03:39.270Z,20.62
2018-11-20T02:09:02.602Z,20.60
2018-11-20T02:14:31.459Z,20.59
2018-11-20T02:20:13.038Z,20.57
2018-11-20T02:25:31.016Z,20.55
2018-11-20T02:31:06.216Z,20.52
2018-11-20T02:36:31.916Z,20.51
2018-11-20T02:41:54.000Z,20.47
2018-11-20T02:47:15.975Z,20.47
2018-11-20T02:52:29.883Z,20.46
2018-11-20T02:58:08.519Z,20.43
2018-11-20T03:03:46.986Z,20.42
2018-11-20T03:09:08.690Z,20.38
2018-11-20T03:14:30.635Z,20.37
2018-11-20T03:19:47.769Z,20.36
2018-11-20T03:25:13.893Z,20.34
2018-11-20T03:31:14.888Z,20.33
2018-11-20T03:36:36.934Z,20.31
2018-11-20T03:41:58.963Z,20.30
2018-11-20T03:47:10.171Z,20.28
2018-11-20T03:52:45.389Z,20.27
2018-11-20T03:58:07.564Z,20.25
2018-11-20T04:03:42.647Z,20.25
2018-11-20T04:09:08.591Z,20.23
2018-11-20T04:14:37.638Z,20.22
2018-11-20T04:19:51.261Z,20.21
2018-11-20T04:25:13.220Z,20.19
2018-11-20T04:31:15.430Z,20.18
2018-11-20T04:36:37.386Z,20.17
2018-11-20T04:42:16.022Z,20.21
2018-11-20T04:47:54.769Z,20.22
2018-11-20T04:53:23.769Z,20.22
2018-11-20T04:58:44.653Z,20.17
2018-11-20T05:04:16.920Z,20.15
2018-11-20T05:09:52.540Z,20.12
2018-11-20T05:15:18.616Z,20.10
2018-11-20T05:20:40.482Z,20.08
2018-11-20T05:26:03.857Z,20.07
2018-11-20T05:31:16.844Z,20.06
2018-11-20T05:36:47.390Z,20.04
2018-11-20T05:42:10.286Z,20.02
2018-11-20T05:47:28.139Z,20.03
2018-11-20T05:52:44.667Z,20.02
2018-11-20T05:58:04.676Z,20.00
2018-11-20T06:03:26.684Z,20.01
2018-11-20T06:08:48.775Z,20.01
2018-11-20T06:14:10.574Z,19.99
2018-11-20T06:19:24.019Z,19.98
2018-11-20T06:24:38.486Z,19.97
2018-11-20T06:30:37.570Z,20.01
2018-11-20T06:36:09.055Z,19.96
2018-11-20T06:41:25.797Z,19.94
2018-11-20T06:46:46.836Z,19.92
2018-11-20T06:52:09.352Z,19.92
2018-11-20T06:57:30.902Z,19.89
2018-11-20T07:02:53.396Z,19.87
2018-11-20T07:08:16.364Z,19.87
2018-11-20T07:13:48.771Z,19.84
2018-11-20T07:19:09.748Z,19.83
2018-11-20T07:24:32.308Z,19.83
2018-11-20T07:29:50.867Z,19.72
2018-11-20T07:35:22.593Z,19.72
2018-11-20T07:40:47.884Z,19.78
2018-11-20T07:46:00.459Z,19.77
2018-11-20T07:51:28.769Z,19.70
2018-11-20T07:57:06.324Z,19.66
2018-11-20T08:02:28.838Z,19.60
2018-11-20T08:08:09.683Z,19.64
2018-11-20T08:13:30.851Z,19.99
2018-11-20T08:18:47.913Z,20.49
2018-11-20T08:24:12.491Z,20.80
2018-11-20T08:29:47.330Z,20.88
2018-11-20T08:35:27.964Z,20.83
2018-11-20T08:40:43.015Z,20.68
2018-11-20T08:46:05.545Z,20.46
2018-11-20T08:51:26.989Z,20.46
2018-11-20T08:56:52.664Z,20.48
2018-11-20T09:02:16.784Z,20.44
2018-11-20T09:07:45.792Z,20.38
2018-11-20T09:13:00.434Z,20.31
2018-11-20T09:18:31.819Z,20.25
2018-11-20T09:23:50.556Z,20.21
2018-11-20T09:29:13.101Z,20.17
2018-11-20T09:34:32.237Z,20.13
2018-11-20T09:40:00.971Z,20.08
2018-11-20T09:46:20.735Z,20.04
2018-11-20T09:51:58.441Z,20.00
2018-11-20T09:57:30.005Z,20.02
2018-11-20T10:02:51.556Z,20.26
2018-11-20T10:08:05.720Z,20.69
2018-11-20T10:13:29.811Z,20.87
2018-11-20T10:18:49.119Z,20.86
2018-11-20T10:24:30.231Z,20.80
2018-11-20T10:29:51.123Z,20.73
2018-11-20T10:35:31.969Z,20.69
2018-11-20T10:40:55.718Z,20.58
2018-11-20T10:46:30.995Z,20.48
2018-11-20T10:51:53.528Z,20.43
2018-11-20T10:57:15.237Z,14.41
2018-11-20T11:02:36.595Z,13.08
2018-11-20T11:07:58.151Z,16.20
2018-11-20T11:13:12.317Z,18.31
2018-11-20T11:18:31.361Z,19.51
2018-11-20T11:23:52.547Z,19.95
2018-11-20T11:29:27.083Z,20.14
2018-11-20T11:34:48.572Z,20.82
2018-11-20T11:40:17.220Z,20.87
2018-11-20T11:45:47.383Z,20.75
2018-11-20T11:51:11.136Z,20.72
2018-11-20T11:56:32.073Z,20.68
2018-11-20T12:07:30.317Z,20.46
2018-11-20T12:12:52.842Z,20.42
2018-11-20T12:18:18.267Z,17.35
2018-11-20T12:23:40.828Z,18.49
2018-11-20T12:29:06.277Z,19.51
2018-11-20T12:34:37.865Z,20.08
2018-11-20T12:39:59.915Z,20.38
2018-11-20T12:45:21.143Z,20.52
2018-11-20T12:50:46.974Z,20.57
2018-11-20T12:56:07.885Z,20.48
2018-11-20T13:01:36.460Z,20.44
2018-11-20T13:07:00.665Z,20.26
2018-11-20T13:12:21.415Z,20.21
2018-11-20T13:17:46.952Z,20.41
2018-11-20T13:23:15.246Z,20.91
2018-11-20T13:28:41.482Z,21.28
2018-11-20T13:34:02.604Z,21.45
2018-11-20T13:39:30.561Z,21.43
2018-11-20T13:44:57.275Z,21.45
2018-11-20T13:50:17.361Z,21.45
2018-11-20T13:55:38.877Z,21.57
2018-11-20T14:01:13.844Z,21.50
2018-11-20T14:06:39.622Z,21.50
2018-11-20T14:12:00.710Z,21.46
2018-11-20T14:17:32.035Z,21.68
2018-11-20T14:22:57.622Z,21.56
2018-11-20T14:28:38.495Z,21.73
2018-11-20T14:34:01.018Z,21.78
2018-11-20T14:39:22.447Z,21.61
2018-11-20T14:44:43.788Z,21.76
2018-11-20T14:50:24.935Z,21.49
2018-11-20T14:55:44.024Z,21.67
2018-11-20T15:01:05.435Z,21.84
2018-11-20T15:06:26.953Z,21.84
2018-11-20T15:11:48.012Z,21.78
2018-11-20T15:17:28.968Z,21.66
2018-11-20T15:22:57.353Z,21.65
2018-11-20T15:28:38.104Z,21.63
2018-11-20T15:34:03.640Z,21.71
2018-11-20T15:39:15.190Z,21.54
2018-11-20T15:44:36.984Z,21.58
2018-11-20T15:49:58.789Z,21.68
2018-11-20T15:55:21.313Z,21.77
2018-11-20T16:00:50.343Z,21.77
2018-11-20T16:06:18.924Z,21.66
2018-11-20T16:11:40.355Z,21.60
2018-11-20T16:17:05.553Z,21.48
2018-11-20T16:22:27.108Z,21.45
2018-11-20T16:27:48.362Z,21.57
2018-11-20T16:33:25.829Z,21.74
2018-11-20T16:38:46.884Z,21.86
2018-11-20T16:44:08.452Z,21.81
2018-11-20T16:49:41.845Z,21.73
2018-11-20T16:55:04.371Z,21.65
2018-11-20T17:00:36.906Z,21.60
2018-11-20T17:06:08.748Z,21.52
2018-11-20T17:11:30.192Z,21.45
2018-11-20T17:16:52.758Z,21.56
2018-11-20T17:22:14.036Z,21.77
2018-11-20T17:27:54.496Z,21.87
2018-11-20T17:33:26.280Z,21.87
2018-11-20T17:39:01.172Z,21.75
2018-11-20T17:44:16.833Z,21.67
2018-11-20T17:49:48.512Z,21.53
2018-11-20T17:55:03.147Z,21.49
2018-11-20T18:00:26.807Z,21.46
2018-11-20T18:05:54.543Z,21.59
2018-11-20T18:11:12.501Z,21.79
2018-11-20T18:16:26.760Z,21.88
2018-11-20T18:21:46.703Z,21.79
2018-11-20T18:27:08.948Z,21.65
2018-11-20T18:32:30.431Z,21.57
2018-11-20T18:37:50.962Z,21.51
2018-11-20T18:43:08.431Z,21.47
2018-11-20T18:48:42.949Z,21.48
2018-11-20T18:54:23.892Z,21.46
2018-11-20T18:59:49.483Z,21.61
2018-11-20T19:05:10.792Z,21.82
2018-11-20T19:10:32.082Z,21.77
2018-11-20T19:15:54.615Z,21.70
2018-11-20T19:21:15.674Z,21.70
2018-11-20T19:26:50.496Z,21.74
2018-11-20T19:32:21.716Z,21.51
2018-11-20T19:37:53.542Z,21.46
2018-11-20T19:43:09.152Z,21.54
2018-11-20T19:48:37.872Z,21.60
2018-11-20T19:54:15.791Z,21.72
2018-11-20T19:59:56.340Z,21.82
2018-11-20T20:05:18.860Z,21.78
2018-11-20T20:10:39.769Z,21.64
2018-11-20T20:16:01.417Z,21.71
2018-11-20T20:21:22.885Z,21.60
2018-11-20T20:26:57.478Z,21.41
2018-11-20T20:32:09.692Z,21.48
2018-11-20T20:37:38.888Z,21.39
2018-11-20T20:43:05.049Z,21.39
2018-11-20T20:48:35.863Z,21.37
2018-11-20T20:53:54.012Z,21.33
2018-11-20T20:59:19.398Z,21.32
2018-11-20T21:04:51.599Z,21.31
2018-11-20T21:10:14.390Z,21.27
2018-11-20T21:15:42.680Z,21.24
2018-11-20T21:21:15.577Z,21.22
2018-11-20T21:26:33.104Z,21.25
2018-11-20T21:31:45.839Z,21.27
2018-11-20T21:37:07.715Z,21.19
2018-11-20T21:42:36.702Z,21.17
2018-11-20T21:48:14.660Z,21.21
2018-11-20T21:53:36.123Z,21.14
2018-11-20T21:59:10.559Z,21.17
2018-11-20T22:04:33.109Z,21.17
2018-11-20T22:09:54.836Z,21.16
2018-11-20T22:15:21.376Z,21.16
2018-11-20T22:20:48.230Z,21.17
2018-11-20T22:26:09.432Z,21.15
2018-11-20T22:31:47.113Z,21.16
2018-11-20T22:37:21.675Z,21.12
2018-11-20T22:42:50.431Z,21.13
2018-11-20T22:48:15.841Z,21.09
2018-11-20T22:53:50.535Z,21.07
2018-11-20T22:59:09.807Z,21.11
2018-11-20T23:04:41.585Z,21.10
2018-11-20T23:09:45.039Z,21.14
2018-11-20T23:14:48.581Z,21.08
2018-11-20T23:19:52.052Z,21.13
2018-11-20T23:24:55.701Z,21.09
2018-11-20T23:29:59.472Z,21.04
2018-11-20T23:35:03.121Z,21.04
2018-11-20T23:40:07.640Z,21.05
2018-11-20T23:45:13.328Z,21.04
2018-11-20T23:50:16.809Z,21.05
2018-11-20T23:55:20.258Z,21.02
